Rhodes, Michigan
Current Conditions -  °F | °C
As of 12:14 PM on Thursday 18 Dec 2014 (Local Time) from KIKW Reporting Station
Overcast Overcast  
Wind Chill: 24°   Ceiling: 1300
Heat Index: 29°   Visibility: 10mi
Dew Point: 24°   Wind: 5mph
Humidity: 81%   Direction: 330°NNW
Pressure: 30.2"   Gusts: NA
Location:  43.9°N, 84.18°W
Report Text: KIKW 181714Z AUTO 33004KT 10SM OVC013 M01/M04 A3020 RMK AO2 T10151044
Loading
Personal Weather Stations






























Interactive Weather Map New forecast layout! Learn more

10-Day Weather Forecast

Advertisements
Track Severe Weather on mobile